Time;durP1;ratioP1;P1;durP2;ratioP2;P2;SDS_P1;SDS_P2;PMS_P1;PMS_P2;Temp;Humidity;BMP_temperature;BMP_pressure;BME280_temperature;BME280_humidity;BME280_pressure;Samples;Min_cycle;Max_cycle;Signal;HPM_P1;HPM_P2
2022/08/19 00:01:15;;;;;;;31.30;21.07;;;;;;;;;;5054829;28;20404;-72
2022/08/19 00:03:41;;;;;;;31.50;22.50;;;;;;;;;;5054562;28;20466;-72
2022/08/19 00:06:07;;;;;;;21.50;19.30;;;;;;;;;;5054486;28;20402;-72
2022/08/19 00:08:34;;;;;;;19.77;17.80;;;;;;;;;;5053326;28;20420;-75
2022/08/19 00:11:00;;;;;;;23.20;20.73;;;;;;;;;;5054479;28;20404;-73
2022/08/19 00:13:28;;;;;;;23.17;19.63;;;;;;;;;;5054137;28;20493;-73
2022/08/19 00:15:54;;;;;;;22.07;19.60;;;;;;;;;;5054362;28;20407;-73
2022/08/19 00:18:20;;;;;;;25.00;19.50;;;;;;;;;;5053633;28;20892;-73
2022/08/19 00:20:46;;;;;;;22.87;20.57;;;;;;;;;;5054338;28;20407;-72
2022/08/19 00:23:12;;;;;;;24.00;19.50;;;;;;;;;;5054217;28;20758;-73
2022/08/19 00:25:39;;;;;;;23.27;20.93;;;;;;;;;;5052865;28;20435;-73
2022/08/19 00:28:05;;;;;;;23.17;20.80;;;;;;;;;;5054463;28;20420;-73
2022/08/19 00:30:31;;;;;;;23.27;21.00;;;;;;;;;;5052709;28;20459;-73
2022/08/19 00:32:57;;;;;;;24.27;21.73;;;;;;;;;;5054029;28;20568;-73
2022/08/19 00:35:24;;;;;;;26.47;23.23;;;;;;;;;;5052695;28;20919;-73
2022/08/19 00:37:50;;;;;;;25.83;22.83;;;;;;;;;;5053969;28;20414;-75
2022/08/19 00:40:18;;;;;;;28.10;23.67;;;;;;;;;;5052610;28;20458;-77
2022/08/19 00:42:44;;;;;;;27.80;21.80;;;;;;;;;;5053786;28;20419;-74
2022/08/19 00:45:16;;;;;;;27.57;22.40;;;;;;;;;;5052453;28;20937;-74
2022/08/19 00:47:43;;;;;;;23.13;20.70;;;;;;;;;;5053857;28;20493;-74
2022/08/19 00:50:10;;;;;;;23.23;20.83;;;;;;;;;;5052436;28;20921;-74
2022/08/19 00:52:39;;;;;;;24.40;21.37;;;;;;;;;;5053625;28;20462;-74
2022/08/19 00:55:10;;;;;;;22.93;20.47;;;;;;;;;;5053717;28;20412;-74
2022/08/19 00:57:37;;;;;;;21.60;19.53;;;;;;;;;;5053736;28;20431;-73
2022/08/19 01:00:06;;;;;;;20.77;18.77;;;;;;;;;;5053485;28;20493;-73
2022/08/19 01:02:32;;;;;;;19.50;17.63;;;;;;;;;;5053542;28;20907;-72
2022/08/19 01:05:00;;;;;;;21.17;19.03;;;;;;;;;;5053531;28;20914;-72
2022/08/19 01:07:26;;;;;;;20.48;18.48;;;;;;;;;;5052682;28;20415;-72
2022/08/19 01:09:53;;;;;;;24.37;20.53;;;;;;;;;;5053453;28;20529;-72
2022/08/19 01:12:19;;;;;;;24.03;21.43;;;;;;;;;;5053330;28;20400;-73
2022/08/19 01:14:45;;;;;;;23.40;21.13;;;;;;;;;;5053237;28;20479;-72
2022/08/19 01:17:12;;;;;;;30.87;20.73;;;;;;;;;;5053387;28;20411;-72
2022/08/19 01:19:40;;;;;;;27.97;22.80;;;;;;;;;;5053270;28;20429;-72
2022/08/19 01:22:09;;;;;;;27.30;22.90;;;;;;;;;;5053347;28;20406;-72
2022/08/19 01:24:35;;;;;;;31.73;23.90;;;;;;;;;;5053306;28;20459;-72
2022/08/19 01:27:04;;;;;;;32.70;25.00;;;;;;;;;;5053290;28;20411;-72
2022/08/19 01:29:30;;;;;;;27.70;23.63;;;;;;;;;;5055091;28;20429;-73
2022/08/19 01:31:56;;;;;;;31.20;27.80;;;;;;;;;;5057356;28;20415;-71
2022/08/19 01:34:23;;;;;;;36.70;29.50;;;;;;;;;;5055991;28;20465;-71
2022/08/19 01:36:49;;;;;;;28.63;25.50;;;;;;;;;;5057205;28;20395;-77
2022/08/19 01:39:17;;;;;;;31.80;26.70;;;;;;;;;;5057172;28;20468;-71
2022/08/19 01:41:43;;;;;;;31.33;25.50;;;;;;;;;;5057142;28;20411;-72
2022/08/19 01:44:09;;;;;;;31.47;28.17;;;;;;;;;;5057134;28;20926;-72
2022/08/19 01:46:36;;;;;;;36.80;30.90;;;;;;;;;;5055806;28;20924;-72
2022/08/19 01:49:03;;;;;;;36.77;30.47;;;;;;;;;;5057113;28;20418;-72
2022/08/19 01:51:30;;;;;;;43.73;33.13;;;;;;;;;;5057086;28;20892;-70
2022/08/19 01:53:56;;;;;;;39.13;32.20;;;;;;;;;;5055597;28;20604;-74
2022/08/19 01:56:22;;;;;;;40.47;34.13;;;;;;;;;;5056971;28;20904;-73
2022/08/19 01:58:56;;;;;;;37.97;32.90;;;;;;;;;;5056880;28;20399;-73
2022/08/19 02:01:22;;;;;;;32.37;28.97;;;;;;;;;;5056810;28;20402;-72
2022/08/19 02:03:48;;;;;;;37.20;31.80;;;;;;;;;;5055568;28;20415;-72
2022/08/19 02:06:16;;;;;;;94.63;79.50;;;;;;;;;;5056616;28;20763;-73
2022/08/19 02:08:45;;;;;;;56.50;40.70;;;;;;;;;;5056699;28;20509;-73
2022/08/19 02:11:18;;;;;;;43.27;36.20;;;;;;;;;;5056655;28;20826;-72
2022/08/19 02:13:44;;;;;;;44.23;34.40;;;;;;;;;;5056376;28;20493;-73
2022/08/19 02:16:10;;;;;;;46.03;33.60;;;;;;;;;;5056562;28;20408;-72
2022/08/19 02:18:36;;;;;;;40.47;32.90;;;;;;;;;;5056522;28;20415;-72
2022/08/19 02:21:02;;;;;;;46.10;32.00;;;;;;;;;;5056787;28;20463;-72
2022/08/19 02:23:28;;;;;;;37.07;31.30;;;;;;;;;;5056375;28;20446;-72
2022/08/19 02:25:54;;;;;;;38.37;31.30;;;;;;;;;;5056444;28;20419;-73
2022/08/19 02:28:20;;;;;;;35.07;30.17;;;;;;;;;;5056283;28;20816;-75
2022/08/19 02:30:47;;;;;;;35.80;29.97;;;;;;;;;;5056299;28;20414;-73
2022/08/19 02:33:12;;;;;;;41.23;31.40;;;;;;;;;;5056218;28;20509;-73
2022/08/19 02:35:41;;;;;;;36.30;30.20;;;;;;;;;;5056205;28;20407;-73
2022/08/19 02:38:25;;;;;;;31.43;28.03;;;;;;;;;;5054895;28;20520;-73
2022/08/19 02:40:53;;;;;;;32.40;28.90;;;;;;;;;;5055409;28;20816;-74
2022/08/19 02:43:22;;;;;;;33.27;29.20;;;;;;;;;;5056084;28;20822;-73
2022/08/19 02:45:49;;;;;;;40.57;35.37;;;;;;;;;;5055957;28;20416;-74
2022/08/19 02:48:17;;;;;;;35.13;31.23;;;;;;;;;;5056009;28;20410;-73
2022/08/19 02:50:43;;;;;;;40.23;28.47;;;;;;;;;;5055870;28;20402;-73
2022/08/19 02:53:09;;;;;;;32.83;29.40;;;;;;;;;;5055794;28;20468;-73
2022/08/19 02:55:35;;;;;;;45.47;29.90;;;;;;;;;;5054561;28;20423;-73
2022/08/19 02:58:01;;;;;;;33.90;29.83;;;;;;;;;;5055786;28;20414;-73
2022/08/19 03:00:27;;;;;;;32.50;27.90;;;;;;;;;;5055883;28;20419;-73
2022/08/19 03:02:53;;;;;;;26.50;23.77;;;;;;;;;;5055731;28;20886;-73
2022/08/19 03:05:20;;;;;;;26.27;23.60;;;;;;;;;;5055600;28;20421;-74
2022/08/19 03:07:46;;;;;;;27.77;24.97;;;;;;;;;;5055692;28;20402;-74
2022/08/19 03:10:12;;;;;;;32.50;26.03;;;;;;;;;;5055600;28;20507;-73
2022/08/19 03:12:39;;;;;;;33.30;27.10;;;;;;;;;;5055422;28;20451;-72
2022/08/19 03:15:07;;;;;;;31.03;25.30;;;;;;;;;;5055288;28;20473;-73
2022/08/19 03:17:33;;;;;;;29.70;24.73;;;;;;;;;;5055389;28;20391;-72
2022/08/19 03:19:59;;;;;;;36.90;28.70;;;;;;;;;;5055458;28;20781;-74
2022/08/19 03:22:25;;;;;;;39.80;27.47;;;;;;;;;;5055278;28;20414;-74
2022/08/19 03:24:51;;;;;;;35.00;27.90;;;;;;;;;;5053985;28;20423;-73
2022/08/19 03:27:17;;;;;;;40.47;27.53;;;;;;;;;;5055293;28;20405;-73
2022/08/19 03:29:43;;;;;;;31.50;27.33;;;;;;;;;;5053866;28;20433;-73
2022/08/19 03:32:09;;;;;;;30.80;27.30;;;;;;;;;;5055181;28;20501;-73
2022/08/19 03:34:37;;;;;;;33.80;27.33;;;;;;;;;;5054988;28;20992;-75
2022/08/19 03:37:05;;;;;;;32.70;24.57;;;;;;;;;;5055161;28;20442;-73
2022/08/19 03:39:31;;;;;;;32.77;26.27;;;;;;;;;;5053707;28;20816;-73
2022/08/19 03:41:59;;;;;;;25.97;23.47;;;;;;;;;;5055047;28;20407;-73
2022/08/19 03:44:25;;;;;;;26.30;23.70;;;;;;;;;;5054898;28;20453;-73
2022/08/19 03:46:57;;;;;;;27.97;24.20;;;;;;;;;;5053634;28;20439;-73
2022/08/19 03:49:24;;;;;;;29.03;24.80;;;;;;;;;;5054842;28;20474;-73
2022/08/19 03:51:50;;;;;;;31.67;26.57;;;;;;;;;;5054341;28;20900;-73
2022/08/19 03:54:18;;;;;;;26.30;23.77;;;;;;;;;;5053985;28;20467;-73
2022/08/19 03:56:44;;;;;;;24.47;22.07;;;;;;;;;;5054858;28;20451;-73
2022/08/19 03:59:13;;;;;;;28.03;25.03;;;;;;;;;;5054599;28;20437;-73
2022/08/19 04:01:39;;;;;;;31.90;26.17;;;;;;;;;;5054554;28;20466;-73
2022/08/19 04:04:05;;;;;;;32.80;24.93;;;;;;;;;;5054549;28;20420;-74
2022/08/19 04:06:36;;;;;;;24.73;22.30;;;;;;;;;;5054560;28;20428;-74
2022/08/19 04:09:04;;;;;;;26.67;23.87;;;;;;;;;;5054445;28;20406;-73
2022/08/19 04:11:53;;;;;;;24.90;22.37;;;;;;;;;;5054433;28;20792;-73
2022/08/19 04:14:20;;;;;;;27.80;25.20;;;;;;;;;;5052804;28;20569;-73
2022/08/19 04:16:47;;;;;;;27.20;24.50;;;;;;;;;;5053065;28;20415;-73
2022/08/19 04:19:14;;;;;;;29.33;23.60;;;;;;;;;;5054188;28;20780;-74
2022/08/19 04:21:40;;;;;;;27.70;24.90;;;;;;;;;;5054116;28;20557;-73
2022/08/19 04:24:07;;;;;;;30.03;23.13;;;;;;;;;;5054179;28;20398;-73
2022/08/19 04:26:35;;;;;;;27.30;24.40;;;;;;;;;;5054100;28;20456;-74
2022/08/19 04:29:02;;;;;;;23.80;21.37;;;;;;;;;;5054030;28;20458;-73
2022/08/19 04:31:29;;;;;;;27.93;22.93;;;;;;;;;;5053980;28;20415;-74
2022/08/19 04:33:56;;;;;;;24.23;21.17;;;;;;;;;;5053929;28;20860;-74
2022/08/19 04:36:24;;;;;;;25.80;19.67;;;;;;;;;;5054047;28;20451;-73
2022/08/19 04:38:50;;;;;;;22.90;20.53;;;;;;;;;;5052578;28;20490;-73
2022/08/19 04:44:02;;;;;;;58.20;52.10;;;;;;;;;;5053999;28;20738;-73
2022/08/19 04:46:30;;;;;;;26.47;23.77;;;;;;;;;;5052477;28;20418;-74
2022/08/19 04:48:56;;;;;;;31.10;23.83;;;;;;;;;;5052449;28;20506;-73
2022/08/19 04:51:23;;;;;;;30.10;25.83;;;;;;;;;;5053829;28;20454;-73
2022/08/19 04:53:49;;;;;;;28.77;25.77;;;;;;;;;;5053656;28;20501;-73
2022/08/19 04:56:16;;;;;;;27.67;24.37;;;;;;;;;;5053613;28;20402;-73
2022/08/19 04:58:43;;;;;;;24.97;22.67;;;;;;;;;;5053545;28;20415;-74
2022/08/19 05:01:11;;;;;;;42.10;27.30;;;;;;;;;;5053559;28;20948;-73
2022/08/19 05:03:39;;;;;;;48.10;26.47;;;;;;;;;;5053238;28;20872;-77
2022/08/19 05:06:10;;;;;;;28.57;25.50;;;;;;;;;;5053494;28;20769;-77
2022/08/19 05:08:37;;;;;;;34.80;26.47;;;;;;;;;;5053733;28;20766;-74
2022/08/19 05:11:08;;;;;;;32.87;25.13;;;;;;;;;;5053507;28;20420;-74
2022/08/19 05:13:34;;;;;;;29.23;26.20;;;;;;;;;;5051844;28;20494;-76
2022/08/19 05:16:01;;;;;;;29.50;26.00;;;;;;;;;;5053285;28;21028;-75
2022/08/19 05:23:58;;;;;;;32.50;28.57;;;;;;;;;;5053546;28;20406;-76
2022/08/19 05:26:28;;;;;;;29.77;25.03;;;;;;;;;;5053301;28;20412;-72
2022/08/19 05:28:54;;;;;;;30.33;25.40;;;;;;;;;;5053308;28;20430;-73
2022/08/19 05:31:21;;;;;;;28.40;24.20;;;;;;;;;;5053247;28;20451;-73
2022/08/19 05:33:47;;;;;;;27.73;24.83;;;;;;;;;;5053178;28;20476;-74
2022/08/19 05:36:13;;;;;;;25.90;23.30;;;;;;;;;;5051874;28;20422;-73
2022/08/19 05:38:39;;;;;;;22.93;20.83;;;;;;;;;;5053156;28;20418;-71
2022/08/19 05:41:13;;;;;;;26.70;22.77;;;;;;;;;;5053188;28;20415;-74
2022/08/19 05:43:39;;;;;;;20.87;18.87;;;;;;;;;;5053133;28;20916;-69
2022/08/19 05:46:08;;;;;;;22.70;20.60;;;;;;;;;;5053081;28;20407;-72
2022/08/19 05:48:34;;;;;;;24.77;22.50;;;;;;;;;;5053089;28;20433;-76
2022/08/19 05:51:05;;;;;;;23.53;21.20;;;;;;;;;;5052979;28;20462;-72
2022/08/19 05:53:32;;;;;;;24.50;21.83;;;;;;;;;;5052949;28;21103;-73
2022/08/19 05:55:58;;;;;;;28.10;21.53;;;;;;;;;;5053026;28;20401;-71
2022/08/19 05:58:24;;;;;;;23.03;20.87;;;;;;;;;;5052914;28;20438;-72
2022/08/19 06:00:52;;;;;;;27.20;21.87;;;;;;;;;;5051644;28;20994;-72
2022/08/19 06:03:18;;;;;;;23.77;21.27;;;;;;;;;;5051702;28;20446;-73
2022/08/19 06:05:44;;;;;;;25.40;22.80;;;;;;;;;;5053043;28;20888;-73
2022/08/19 06:08:10;;;;;;;23.30;20.97;;;;;;;;;;5052830;28;20416;-73
2022/08/19 06:10:36;;;;;;;26.83;20.47;;;;;;;;;;5052790;28;20410;-72
2022/08/19 06:13:02;;;;;;;22.87;20.73;;;;;;;;;;5051150;28;20488;-72
2022/08/19 06:15:29;;;;;;;25.80;22.20;;;;;;;;;;5051488;28;20525;-73
2022/08/19 06:17:54;;;;;;;24.93;21.97;;;;;;;;;;5056522;28;20808;-72
2022/08/19 06:20:21;;;;;;;26.23;22.23;;;;;;;;;;5056449;28;20422;-74
2022/08/19 06:22:51;;;;;;;24.50;21.90;;;;;;;;;;5056472;28;20417;-73
2022/08/19 06:25:17;;;;;;;25.23;21.80;;;;;;;;;;5056460;28;20808;-76
2022/08/19 06:27:44;;;;;;;23.00;20.67;;;;;;;;;;5056330;28;20502;-72
2022/08/19 06:30:11;;;;;;;27.63;22.83;;;;;;;;;;5056334;28;20465;-72
2022/08/19 06:32:37;;;;;;;22.17;20.07;;;;;;;;;;5055009;28;20842;-72
2022/08/19 06:35:04;;;;;;;22.23;20.03;;;;;;;;;;5056239;28;20424;-72
2022/08/19 06:37:30;;;;;;;22.83;20.63;;;;;;;;;;5056160;28;20403;-71
2022/08/19 06:39:56;;;;;;;27.10;21.40;;;;;;;;;;5056188;28;20407;-72
2022/08/19 06:42:22;;;;;;;22.90;20.60;;;;;;;;;;5056146;28;20408;-72
2022/08/19 06:44:49;;;;;;;24.40;20.30;;;;;;;;;;5055998;28;20423;-74
2022/08/19 06:47:17;;;;;;;25.03;19.33;;;;;;;;;;5056022;28;20810;-72
2022/08/19 06:49:43;;;;;;;23.10;20.23;;;;;;;;;;5055933;28;20754;-73
2022/08/19 06:52:11;;;;;;;23.23;19.00;;;;;;;;;;5054673;28;20423;-73
2022/08/19 06:54:38;;;;;;;23.40;20.73;;;;;;;;;;5055802;28;20486;-70
2022/08/19 06:57:04;;;;;;;22.73;20.50;;;;;;;;;;5055834;28;20494;-73
2022/08/19 06:59:32;;;;;;;22.30;20.07;;;;;;;;;;5055713;28;20925;-73
2022/08/19 07:02:00;;;;;;;22.50;20.30;;;;;;;;;;5055710;28;20397;-72
2022/08/19 07:04:31;;;;;;;23.77;20.43;;;;;;;;;;5055664;28;20450;-72
2022/08/19 07:06:59;;;;;;;26.93;20.57;;;;;;;;;;5055624;28;20455;-69
2022/08/19 07:09:25;;;;;;;24.90;20.60;;;;;;;;;;5055903;28;20425;-71
2022/08/19 07:11:52;;;;;;;21.10;19.00;;;;;;;;;;5055637;28;20758;-70
2022/08/19 07:14:19;;;;;;;25.20;20.97;;;;;;;;;;5055217;28;21042;-72
2022/08/19 07:16:46;;;;;;;23.27;20.00;;;;;;;;;;5055555;28;20876;-69
2022/08/19 07:19:13;;;;;;;26.07;21.37;;;;;;;;;;5055438;28;20825;-70
2022/08/19 07:21:39;;;;;;;22.30;19.90;;;;;;;;;;5055403;28;20416;-70
2022/08/19 07:24:05;;;;;;;22.17;19.97;;;;;;;;;;5055401;28;20412;-71
2022/08/19 07:26:32;;;;;;;29.03;21.63;;;;;;;;;;5055066;28;20938;-70
2022/08/19 07:29:00;;;;;;;24.90;20.17;;;;;;;;;;5055263;28;20456;-71
2022/08/19 07:31:27;;;;;;;20.30;18.07;;;;;;;;;;5055127;28;20543;-71
2022/08/19 07:33:55;;;;;;;23.57;19.20;;;;;;;;;;5055043;28;20541;-72
2022/08/19 07:36:22;;;;;;;23.23;20.77;;;;;;;;;;5055349;28;20812;-72
2022/08/19 07:38:49;;;;;;;24.00;21.60;;;;;;;;;;5053744;28;20447;-71
2022/08/19 07:41:17;;;;;;;22.30;20.20;;;;;;;;;;5054986;28;20409;-71
2022/08/19 07:43:43;;;;;;;22.07;19.90;;;;;;;;;;5054878;28;20452;-70
2022/08/19 07:46:09;;;;;;;21.77;19.50;;;;;;;;;;5053644;28;20432;-71
2022/08/19 07:48:36;;;;;;;21.30;19.20;;;;;;;;;;5054826;28;20417;-70
2022/08/19 07:51:03;;;;;;;23.57;21.33;;;;;;;;;;5053494;28;20401;-70
2022/08/19 07:53:31;;;;;;;21.93;19.67;;;;;;;;;;5054747;28;20555;-70
2022/08/19 07:56:03;;;;;;;22.83;20.73;;;;;;;;;;5054774;28;20404;-70
2022/08/19 07:58:31;;;;;;;21.80;19.67;;;;;;;;;;5054704;28;20961;-70
2022/08/19 08:00:58;;;;;;;22.67;20.23;;;;;;;;;;5053286;28;20413;-70
2022/08/19 08:09:10;;;;;;;22.17;19.90;;;;;;;;;;5053365;28;20424;-71
2022/08/19 08:09:11;;;;;;;22.43;20.10;;;;;;;;;;5054677;28;21018;-70
2022/08/19 08:11:41;;;;;;;22.93;20.53;;;;;;;;;;5054399;28;20389;-71
2022/08/19 08:14:08;;;;;;;22.70;20.63;;;;;;;;;;5053833;28;20498;-71
2022/08/19 08:16:36;;;;;;;23.33;21.17;;;;;;;;;;5054208;28;20904;-70
2022/08/19 08:19:05;;;;;;;22.47;20.27;;;;;;;;;;5054259;28;20957;-73
2022/08/19 08:21:31;;;;;;;33.37;22.93;;;;;;;;;;5054332;28;20461;-71
2022/08/19 08:23:57;;;;;;;24.00;21.67;;;;;;;;;;5054189;28;20787;-71
2022/08/19 08:26:23;;;;;;;24.17;22.00;;;;;;;;;;5052858;28;20479;-71
2022/08/19 08:28:49;;;;;;;24.00;21.90;;;;;;;;;;5054074;28;20418;-71
2022/08/19 08:31:15;;;;;;;24.20;21.80;;;;;;;;;;5054102;28;20785;-72
2022/08/19 08:33:42;;;;;;;25.90;23.10;;;;;;;;;;5054001;28;20468;-73
2022/08/19 08:36:08;;;;;;;23.23;20.87;;;;;;;;;;5054029;28;20478;-72
2022/08/19 08:38:35;;;;;;;27.83;22.33;;;;;;;;;;5053408;28;20409;-73
2022/08/19 08:41:06;;;;;;;24.23;21.90;;;;;;;;;;5053926;28;20410;-71
2022/08/19 08:43:42;;;;;;;25.43;21.67;;;;;;;;;;5052528;28;20429;-71
2022/08/19 08:46:10;;;;;;;25.53;23.23;;;;;;;;;;5054046;28;20894;-72
2022/08/19 08:48:46;;;;;;;23.43;21.13;;;;;;;;;;5052546;28;20413;-71
2022/08/19 08:51:14;;;;;;;24.80;22.33;;;;;;;;;;5053785;28;20423;-72
2022/08/19 08:53:41;;;;;;;24.40;22.00;;;;;;;;;;5053570;28;20833;-72
2022/08/19 08:56:12;;;;;;;25.23;22.73;;;;;;;;;;5053628;28;20963;-71
2022/08/19 08:58:47;;;;;;;23.23;21.10;;;;;;;;;;5053614;28;20471;-71
2022/08/19 09:01:13;;;;;;;24.63;22.13;;;;;;;;;;5053430;28;20424;-71
2022/08/19 09:03:40;;;;;;;25.90;23.40;;;;;;;;;;5053520;28;20976;-71
2022/08/19 09:06:25;;;;;;;26.40;23.80;;;;;;;;;;5053456;28;20905;-71
2022/08/19 09:09:03;;;;;;;25.37;22.67;;;;;;;;;;5053486;28;20414;-72
2022/08/19 09:11:29;;;;;;;24.83;22.13;;;;;;;;;;5053444;28;20412;-71
2022/08/19 09:14:14;;;;;;;25.80;23.30;;;;;;;;;;5053114;28;20489;-71
2022/08/19 09:16:40;;;;;;;24.93;22.47;;;;;;;;;;5052109;28;20433;-71
2022/08/19 09:19:07;;;;;;;24.40;22.10;;;;;;;;;;5053373;28;20411;-71
2022/08/19 09:21:34;;;;;;;28.80;24.70;;;;;;;;;;5052052;28;20436;-72
2022/08/19 09:24:01;;;;;;;24.43;22.00;;;;;;;;;;5053225;28;20407;-72
2022/08/19 09:26:27;;;;;;;24.80;22.30;;;;;;;;;;5053170;28;20877;-73
2022/08/19 09:28:54;;;;;;;27.83;24.80;;;;;;;;;;5053205;28;20460;-72
2022/08/19 09:31:23;;;;;;;25.97;23.30;;;;;;;;;;5053208;28;20447;-71
2022/08/19 09:33:50;;;;;;;26.60;23.90;;;;;;;;;;5053058;28;20476;-72
2022/08/19 09:36:18;;;;;;;28.13;24.17;;;;;;;;;;5053184;28;20447;-71
2022/08/19 09:38:44;;;;;;;26.27;23.50;;;;;;;;;;5053203;28;20427;-71
2022/08/19 09:41:13;;;;;;;25.63;23.13;;;;;;;;;;5053233;28;20396;-72
2022/08/19 09:43:40;;;;;;;25.07;22.47;;;;;;;;;;5053130;28;20401;-71
2022/08/19 09:46:08;;;;;;;25.97;23.40;;;;;;;;;;5053079;28;20413;-71
2022/08/19 09:48:34;;;;;;;23.47;21.17;;;;;;;;;;5053114;28;20477;-71
2022/08/19 09:51:08;;;;;;;24.00;21.60;;;;;;;;;;5055735;28;20433;-72
2022/08/19 09:53:37;;;;;;;25.37;22.80;;;;;;;;;;5057033;28;20829;-72
2022/08/19 09:56:04;;;;;;;26.40;22.43;;;;;;;;;;5057008;28;20762;-72
2022/08/19 09:58:30;;;;;;;28.20;24.80;;;;;;;;;;5056939;28;20413;-72
2022/08/19 10:00:58;;;;;;;27.50;24.03;;;;;;;;;;5056843;28;20414;-72
2022/08/19 10:03:24;;;;;;;27.70;24.97;;;;;;;;;;5056813;28;20416;-71
2022/08/19 10:05:50;;;;;;;26.30;23.80;;;;;;;;;;5056819;28;20406;-72
2022/08/19 10:08:17;;;;;;;26.07;23.30;;;;;;;;;;5055441;28;20432;-71
2022/08/19 10:10:44;;;;;;;27.07;24.37;;;;;;;;;;5056751;28;20407;-71
2022/08/19 10:13:10;;;;;;;27.20;23.03;;;;;;;;;;5056358;28;20947;-72
2022/08/19 10:15:39;;;;;;;29.87;23.70;;;;;;;;;;5056595;28;20490;-71
2022/08/19 10:18:05;;;;;;;27.50;23.17;;;;;;;;;;5055350;28;20891;-72
2022/08/19 10:20:31;;;;;;;25.73;23.07;;;;;;;;;;5056451;28;20418;-71
2022/08/19 10:22:59;;;;;;;26.23;23.40;;;;;;;;;;5056540;28;20877;-72
2022/08/19 10:25:26;;;;;;;26.90;24.07;;;;;;;;;;5056491;28;20420;-74
2022/08/19 10:27:52;;;;;;;24.10;21.73;;;;;;;;;;5055207;28;20994;-72
2022/08/19 10:30:18;;;;;;;25.97;23.57;;;;;;;;;;5055024;28;20513;-73
2022/08/19 10:32:45;;;;;;;24.70;22.43;;;;;;;;;;5056207;28;20493;-73
2022/08/19 10:35:12;;;;;;;26.20;23.30;;;;;;;;;;5056215;28;20422;-72
2022/08/19 10:37:38;;;;;;;26.50;23.27;;;;;;;;;;5056245;28;20403;-72
2022/08/19 10:40:07;;;;;;;26.13;23.20;;;;;;;;;;5056235;28;20920;-75
2022/08/19 10:42:33;;;;;;;26.87;24.10;;;;;;;;;;5054781;28;20423;-74
2022/08/19 10:44:59;;;;;;;25.33;22.83;;;;;;;;;;5056065;28;20817;-74
2022/08/19 10:47:25;;;;;;;25.67;22.80;;;;;;;;;;5054820;28;20419;-73
2022/08/19 10:52:36;;;;;;;25.73;23.13;;;;;;;;;;5055851;28;20398;-75
2022/08/19 10:57:48;;;;;;;30.50;23.47;;;;;;;;;;5055874;28;20389;-73
2022/08/19 11:00:14;;;;;;;25.03;22.63;;;;;;;;;;5055737;28;20416;-70
2022/08/19 11:02:41;;;;;;;26.53;23.60;;;;;;;;;;5053857;28;20785;-70
2022/08/19 11:05:10;;;;;;;28.97;24.90;;;;;;;;;;5055655;28;20903;-70
2022/08/19 11:07:37;;;;;;;27.20;24.47;;;;;;;;;;5055334;28;20428;-75
2022/08/19 11:10:03;;;;;;;25.77;21.90;;;;;;;;;;5054759;28;20410;-70
2022/08/19 11:12:29;;;;;;;26.73;23.93;;;;;;;;;;5054920;28;20502;-81
2022/08/19 11:14:55;;;;;;;25.03;22.20;;;;;;;;;;5054422;28;20533;-71
2022/08/19 11:17:23;;;;;;;26.87;23.97;;;;;;;;;;5054545;28;20792;-71
2022/08/19 11:19:49;;;;;;;28.43;24.07;;;;;;;;;;5055444;28;20423;-71
2022/08/19 11:22:16;;;;;;;28.27;23.83;;;;;;;;;;5054643;28;20759;-71
2022/08/19 11:24:43;;;;;;;25.50;22.90;;;;;;;;;;5052754;28;20493;-72
2022/08/19 11:27:09;;;;;;;24.83;22.33;;;;;;;;;;5042221;28;20450;-70
2022/08/19 11:29:37;;;;;;;26.80;23.80;;;;;;;;;;5045089;28;20463;-70
2022/08/19 11:32:08;;;;;;;28.40;24.63;;;;;;;;;;5052272;28;20443;-70
2022/08/19 11:34:35;;;;;;;26.20;23.87;;;;;;;;;;5034314;28;20474;-70
2022/08/19 11:37:01;;;;;;;26.23;23.50;;;;;;;;;;5034880;28;20415;-73
2022/08/19 11:39:29;;;;;;;25.57;22.97;;;;;;;;;;5034766;28;20496;-68
2022/08/19 11:41:56;;;;;;;23.17;20.97;;;;;;;;;;5035103;28;20405;-72
2022/08/19 11:44:22;;;;;;;26.73;23.40;;;;;;;;;;5034930;28;20401;-69
2022/08/19 11:46:48;;;;;;;25.53;22.93;;;;;;;;;;5033728;28;20435;-71
2022/08/19 11:49:15;;;;;;;25.27;22.83;;;;;;;;;;5034959;28;20412;-68
2022/08/19 11:51:44;;;;;;;25.43;22.70;;;;;;;;;;5034845;28;20898;-68
2022/08/19 11:54:11;;;;;;;26.30;22.70;;;;;;;;;;5034793;28;20468;-68
2022/08/19 11:56:37;;;;;;;23.63;21.33;;;;;;;;;;5034593;28;20760;-70
2022/08/19 11:59:04;;;;;;;24.77;22.20;;;;;;;;;;5034675;28;21081;-69
2022/08/19 12:01:31;;;;;;;38.40;23.70;;;;;;;;;;5034544;28;20472;-70
2022/08/19 12:03:57;;;;;;;28.50;23.27;;;;;;;;;;5050477;28;20507;-69
2022/08/19 12:06:28;;;;;;;25.87;23.37;;;;;;;;;;5054444;28;20395;-70
2022/08/19 12:08:58;;;;;;;25.17;22.50;;;;;;;;;;5054324;28;20404;-73
2022/08/19 12:11:24;;;;;;;23.93;21.73;;;;;;;;;;5053092;28;20432;-69
2022/08/19 12:13:50;;;;;;;24.63;22.10;;;;;;;;;;5052342;28;20489;-68
2022/08/19 12:16:22;;;;;;;24.93;22.53;;;;;;;;;;5054307;28;20759;-68
2022/08/19 12:18:50;;;;;;;25.00;21.87;;;;;;;;;;5051211;28;20458;-70
2022/08/19 12:21:17;;;;;;;23.63;21.10;;;;;;;;;;5051002;28;20494;-71
2022/08/19 12:23:44;;;;;;;22.20;19.90;;;;;;;;;;5051164;28;20838;-71
2022/08/19 12:26:11;;;;;;;20.43;18.60;;;;;;;;;;5053694;28;20740;-71
2022/08/19 12:28:37;;;;;;;22.33;20.13;;;;;;;;;;5053279;28;20558;-72
2022/08/19 12:31:03;;;;;;;20.43;18.30;;;;;;;;;;5053660;28;20774;-71
2022/08/19 12:33:31;;;;;;;23.17;20.87;;;;;;;;;;5053786;28;20468;-72
2022/08/19 12:36:00;;;;;;;22.13;20.00;;;;;;;;;;5053393;28;20463;-71
2022/08/19 12:38:26;;;;;;;20.73;18.77;;;;;;;;;;5052660;28;20535;-71
2022/08/19 12:40:52;;;;;;;21.60;19.40;;;;;;;;;;5053350;28;20414;-71
2022/08/19 12:43:20;;;;;;;21.17;19.00;;;;;;;;;;5053777;28;20403;-71
2022/08/19 12:45:46;;;;;;;21.87;19.90;;;;;;;;;;5054002;28;20427;-72
2022/08/19 12:48:12;;;;;;;22.40;20.20;;;;;;;;;;5050574;28;20465;-70
2022/08/19 12:50:42;;;;;;;19.23;17.43;;;;;;;;;;5053669;28;20414;-73
2022/08/19 12:53:08;;;;;;;20.83;19.00;;;;;;;;;;5053576;28;20946;-71
2022/08/19 12:55:34;;;;;;;18.87;17.13;;;;;;;;;;5051827;28;20504;-71
2022/08/19 12:58:03;;;;;;;17.80;16.00;;;;;;;;;;5051833;28;20443;-70
2022/08/19 13:00:32;;;;;;;16.17;14.80;;;;;;;;;;5053282;28;20526;-70
2022/08/19 13:02:58;;;;;;;17.70;14.47;;;;;;;;;;5052594;28;20411;-80
2022/08/19 13:05:25;;;;;;;16.57;15.30;;;;;;;;;;5049145;28;20433;-78
2022/08/19 13:07:52;;;;;;;14.17;13.10;;;;;;;;;;5048345;28;20933;-70
2022/08/19 13:10:19;;;;;;;14.60;13.07;;;;;;;;;;5052146;28;20414;-70
2022/08/19 13:12:46;;;;;;;13.70;12.70;;;;;;;;;;5051988;28;20416;-71
2022/08/19 13:15:13;;;;;;;13.17;12.17;;;;;;;;;;5049814;28;20476;-72
2022/08/19 13:17:39;;;;;;;15.60;14.37;;;;;;;;;;5053515;28;20901;-73
2022/08/19 13:20:07;;;;;;;14.10;13.10;;;;;;;;;;5053478;28;20908;-72
2022/08/19 13:22:35;;;;;;;14.63;13.63;;;;;;;;;;5053259;28;20404;-73
2022/08/19 13:25:01;;;;;;;14.30;12.90;;;;;;;;;;5053141;28;20395;-71
2022/08/19 13:27:27;;;;;;;13.87;12.87;;;;;;;;;;5053250;28;20489;-72
2022/08/19 13:35:22;;;;;;;12.30;11.20;;;;;;;;;;5053151;28;20486;-73
2022/08/19 13:37:48;;;;;;;18.27;12.27;;;;;;;;;;5053198;28;20878;-72
2022/08/19 13:40:23;;;;;;;12.03;10.83;;;;;;;;;;5053236;28;20410;-72
2022/08/19 13:42:51;;;;;;;10.10;9.60;;;;;;;;;;5046785;28;20793;-71
2022/08/19 13:45:19;;;;;;;12.33;11.03;;;;;;;;;;5033070;28;20466;-73
2022/08/19 13:47:49;;;;;;;13.23;12.13;;;;;;;;;;5033672;28;20422;-72
2022/08/19 13:50:16;;;;;;;12.13;11.23;;;;;;;;;;5046534;28;20496;-72
2022/08/19 13:52:43;;;;;;;13.73;12.77;;;;;;;;;;5051681;28;20449;-74
2022/08/19 13:55:10;;;;;;;14.23;13.00;;;;;;;;;;5034745;28;20435;-73
2022/08/19 13:57:38;;;;;;;12.07;11.30;;;;;;;;;;5033132;28;20465;-72
2022/08/19 14:00:05;;;;;;;13.00;11.83;;;;;;;;;;5033068;28;20470;-73
2022/08/19 14:02:31;;;;;;;11.90;11.20;;;;;;;;;;5033073;28;20409;-73
2022/08/19 14:04:58;;;;;;;11.40;10.70;;;;;;;;;;5039882;28;20430;-77
2022/08/19 14:07:24;;;;;;;13.33;12.17;;;;;;;;;;5052969;28;20418;-74
2022/08/19 14:09:51;;;;;;;12.50;11.53;;;;;;;;;;5050715;28;20457;-73
2022/08/19 14:12:20;;;;;;;12.30;11.10;;;;;;;;;;5064994;28;20784;-77
2022/08/19 14:14:46;;;;;;;14.17;11.53;;;;;;;;;;5032745;28;20482;-73
2022/08/19 14:17:13;;;;;;;12.17;11.17;;;;;;;;;;5064850;28;20415;-71
2022/08/19 14:19:39;;;;;;;12.37;11.37;;;;;;;;;;5033017;28;20538;-71
2022/08/19 14:22:05;;;;;;;13.27;12.17;;;;;;;;;;5049161;28;20545;-76
2022/08/19 14:24:31;;;;;;;18.60;14.60;;;;;;;;;;5051386;28;20433;-73
2022/08/19 14:27:00;;;;;;;18.30;16.80;;;;;;;;;;5052701;28;20776;-74
2022/08/19 14:29:29;;;;;;;20.53;18.20;;;;;;;;;;5052756;28;20821;-73
2022/08/19 14:31:58;;;;;;;66.07;58.03;;;;;;;;;;5052714;28;20868;-71
2022/08/19 14:34:24;;;;;;;23.17;20.70;;;;;;;;;;5052524;28;20561;-73
2022/08/19 14:36:50;;;;;;;24.30;22.00;;;;;;;;;;5052043;28;20423;-72
2022/08/19 14:39:16;;;;;;;23.13;21.00;;;;;;;;;;5056148;28;20511;-72